This is the latest recevied weather packets stored in our database for station/object KA1BMF-13. If no packets are shown the sender has not sent any weather packets the latest 10 day(s).
| Time | Temp. | Humidity | Pressure | Rain* | Wind** | Luminosity | Snow |
|---|---|---|---|---|---|---|---|
| 1788470416 | 25.56° C | 88% | 1011.7 hPa | 0 mm | - | 57 W/m² | - |
| 1788469819 | 25.56° C | 87% | 1011.8 hPa | 0 mm | - | 90 W/m² | - |
| 1788469219 | 25.56° C | 87% | 1011.8 hPa | 0 mm | - | 152 W/m² | - |
| 1788468619 | 26.11° C | 85% | 1011.9 hPa | 0 mm | - | 106 W/m² | - |
| 1788468017 | 26.11° C | 85% | 1011.9 hPa | 0 mm | - | 89 W/m² | - |
| 1788467417 | 26.11° C | 84% | 1012 hPa | 0 mm | - | 168 W/m² | - |
| 1788466817 | 26.11° C | 81% | 1011.9 hPa | 0 mm | - | 177 W/m² | - |
| 1788466217 | 26.11° C | 83% | 1011.8 hPa | 0 mm | - | 292 W/m² | - |
| 1788465620 | 26.67° C | 83% | 1011.9 hPa | 0 mm | - | 380 W/m² | - |
| 1788465018 | 27.22° C | 81% | 1012 hPa | 0 mm | - | 187 W/m² | - |
| 1788464418 | 27.78° C | 74% | 1012.1 hPa | 0 mm | - | 227 W/m² | - |
| 1788463818 | 27.22° C | 76% | 1012.1 hPa | 0 mm | - | 577 W/m² | - |
| 1788463218 | 27.22° C | 79% | 1012.1 hPa | 0 mm | - | 630 W/m² | - |
| 1788462618 | 26.67° C | 79% | 1012.4 hPa | 0 mm | - | 321 W/m² | - |
| 1788462018 | 26.67° C | 79% | 1012.5 hPa | 0 mm | - | 472 W/m² | - |
| 1788461419 | 26.67° C | 82% | 1012.6 hPa | 0 mm | - | 309 W/m² | - |
| 1788460819 | 26.67° C | 83% | 1012.7 hPa | 0 mm | - | 287 W/m² | - |
| 1788460216 | 26.11° C | 81% | 1012.7 hPa | 0 mm | - | 232 W/m² | - |
| 1788459616 | 26.11° C | 81% | 1012.7 hPa | 0 mm | - | 264 W/m² | - |
| 1788459019 | 26.11° C | 82% | 1012.7 hPa | 0 mm | - | 305 W/m² | - |
| 1788458420 | 26.11° C | 78% | 1012.9 hPa | 0 mm | - | 330 W/m² | - |
| 1788457817 | 25.56° C | 80% | 1012.8 hPa | 0 mm | - | 804 W/m² | - |
| 1788457217 | 25° C | 82% | 1012.9 hPa | 0 mm | - | 517 W/m² | - |
| 1788456617 | 25° C | 83% | 1013 hPa | 0 mm | - | 300 W/m² | - |
| 1788456018 | 25° C | 83% | 1012.9 hPa | 0 mm | - | 317 W/m² | - |
* Rain latest hour (hover to see other rain measurements)
** Current wind speed in m/s (hover to see current wind gust speed)